CST,Max TemperatureF,Mean TemperatureF,Min TemperatureF,Max Dew PointF,MeanDew PointF,Min DewpointF,Max Humidity, Mean Humidity, Min Humidity, Max Sea Level PressureIn, Mean Sea Level PressureIn, Min Sea Level PressureIn, Max VisibilityMiles, Mean VisibilityMiles, Min VisibilityMiles, Max Wind SpeedMPH, Mean Wind SpeedMPH, Max Gust SpeedMPH,PrecipitationIn, CloudCover, Events, WindDirDegrees
2012-11-1,78,58,37,32,27,23,65,34,15,30.11,30.03,29.95,10,10,7,16,7,20,0.00,0,,228
2012-11-2,77,62,46,32,25,18,50,28,12,30.07,29.96,29.92,10,10,10,17,13,21,0.00,0,,308
2012-11-3,59,47,35,34,32,28,87,60,34,30.25,30.18,30.08,10,10,10,15,10,,0.00,0,,53
2012-11-4,69,51,33,37,32,27,81,53,25,30.22,30.16,30.07,10,10,10,17,8,20,0.00,0,,227
2012-11-5,64,50,37,34,29,27,75,46,28,30.29,30.20,30.14,10,10,10,16,10,21,0.00,0,,311
2012-11-6,69,55,41,34,31,27,61,43,25,30.23,30.19,30.14,10,10,10,14,8,17,0.00,0,,353
2012-11-7,78,56,35,34,31,28,81,43,16,30.22,30.07,29.93,10,10,10,21,10,26,0.00,0,,196
2012-11-8,78,60,42,32,23,18,50,27,11,29.95,29.89,29.86,10,10,10,17,12,17,0.00,0,,229
2012-11-9,77,62,48,37,32,28,47,32,18,29.86,29.81,29.75,10,10,10,30,17,38,0.00,0,,220
2012-11-10,75,60,42,50,38,19,88,47,21,29.82,29.71,29.60,10,9,3,45,22,60,0.00,2,,218
2012-11-11,41,32,23,28,18,12,81,54,38,30.27,30.02,29.82,10,10,7,16,8,22,0.00,2,,349
2012-11-12,50,36,21,18,5,-4,80,39,11,30.43,30.36,30.27,10,10,10,10,8,,0.00,0,,216
2012-11-13,57,39,21,18,14,3,55,38,21,30.38,30.26,30.15,10,10,10,24,12,32,0.00,0,,207
2012-11-14,62,45,28,19,14,10,55,33,15,30.33,30.23,30.11,10,10,10,16,8,24,0.00,0,,219
2012-11-15,60,46,32,27,19,12,64,38,22,30.37,30.22,30.09,10,10,7,30,13,37,0.00,0,,339
2012-11-16,59,42,26,37,28,21,80,61,29,30.38,30.31,30.22,10,10,10,16,8,21,0.00,0,,214
2012-11-17,62,50,37,41,38,36,93,66,37,30.24,30.17,30.11,10,10,10,21,14,25,0.00,0,,188
2012-11-18,68,56,44,41,38,32,87,61,30,30.11,30.04,30.00,10,10,10,28,12,32,0.00,0,,204
2012-11-19,69,52,35,41,30,27,87,50,20,30.22,30.15,30.06,10,10,10,16,10,22,0.00,0,,341
2012-11-20,68,50,32,36,27,21,75,46,18,30.30,30.24,30.20,10,10,10,13,6,18,0.00,0,,197
2012-11-21,69,51,33,43,33,23,70,46,27,30.21,30.11,29.98,10,10,10,31,14,37,0.00,0,,203
2012-11-22,69,53,37,41,31,19,81,48,18,30.41,30.07,29.91,10,10,10,25,15,33,0.00,0,,342
2012-11-23,50,38,26,27,16,10,75,48,22,30.59,30.48,30.37,10,10,10,10,6,,0.00,0,,334
2012-11-24,62,45,28,21,16,12,51,35,19,30.37,30.11,29.91,10,10,10,30,14,37,0.00,0,,221
2012-11-25,62,47,32,23,18,10,52,36,19,29.94,29.88,29.84,10,10,7,14,9,22,0.00,0,,17
2012-11-26,42,32,21,27,22,14,86,70,53,30.42,30.17,29.86,10,10,10,24,11,34,0.00,1,,3
2012-11-27,55,36,17,27,21,12,86,57,29,30.43,30.26,30.17,10,10,10,23,11,28,0.00,0,,211
2012-11-28,59,41,23,25,17,9,69,43,20,30.25,30.16,30.07,10,10,10,17,8,16,0.00,0,,239
2012-11-29,69,50,32,27,16,10,60,29,11,30.07,30.02,29.98,10,10,10,17,11,,0.00,0,,206
2012-11-30,68,49,30,25,20,16,64,37,18,30.06,29.98,29.88,10,10,10,18,6,,0.00,0,,221